createdAt,value
2018-10-02T00:00:01.619Z,8.80
2018-10-02T00:02:43.218Z,8.80
2018-10-02T00:05:24.364Z,8.80
2018-10-02T00:08:06.401Z,8.80
2018-10-02T00:10:53.134Z,8.80
2018-10-02T00:13:39.659Z,8.80
2018-10-02T00:16:21.185Z,8.80
2018-10-02T00:19:02.476Z,8.80
2018-10-02T00:21:43.313Z,8.80
2018-10-02T00:24:24.974Z,8.70
2018-10-02T00:27:06.389Z,8.60
2018-10-02T00:29:47.587Z,8.50
2018-10-02T00:32:28.636Z,8.50
2018-10-02T00:35:10.436Z,8.40
2018-10-02T00:37:51.460Z,8.40
2018-10-02T00:40:32.708Z,8.30
2018-10-02T00:43:13.780Z,8.30
2018-10-02T00:45:55.052Z,8.20
2018-10-02T00:48:36.154Z,8.10
2018-10-02T00:51:17.165Z,8.10
2018-10-02T00:53:58.107Z,8.10
2018-10-02T00:56:39.107Z,8.10
2018-10-02T00:59:20.636Z,8.20
2018-10-02T01:02:01.763Z,8.20
2018-10-02T01:04:42.766Z,8.20
2018-10-02T01:07:23.932Z,8.30
2018-10-02T01:10:05.386Z,8.40
2018-10-02T01:12:46.251Z,8.50
2018-10-02T01:15:27.096Z,8.40
2018-10-02T01:18:08.290Z,8.50
2018-10-02T01:20:49.305Z,8.60
2018-10-02T01:23:30.178Z,8.60
2018-10-02T01:26:11.722Z,8.60
2018-10-02T01:28:53.222Z,8.60
2018-10-02T01:31:34.770Z,8.60
2018-10-02T01:34:15.610Z,8.60
2018-10-02T01:36:57.168Z,8.50
2018-10-02T01:39:37.896Z,8.40
2018-10-02T01:42:19.488Z,8.40
2018-10-02T01:45:00.836Z,8.50
2018-10-02T01:47:41.972Z,8.50
2018-10-02T01:50:23.480Z,8.50
2018-10-02T01:53:04.903Z,8.50
2018-10-02T01:55:46.021Z,8.50
2018-10-02T01:58:26.625Z,8.40
2018-10-02T02:01:07.460Z,8.40
2018-10-02T02:03:48.988Z,8.40
2018-10-02T02:06:30.045Z,8.50
2018-10-02T02:09:11.590Z,8.50
2018-10-02T02:11:52.731Z,8.50
2018-10-02T02:14:33.398Z,8.60
2018-10-02T02:17:14.103Z,8.60
2018-10-02T02:19:54.754Z,8.60
2018-10-02T02:22:35.951Z,8.60
2018-10-02T02:25:16.733Z,8.50
2018-10-02T02:27:58.219Z,8.50
2018-10-02T02:30:39.502Z,8.50
2018-10-02T02:33:20.173Z,8.40
2018-10-02T02:36:01.324Z,8.40
2018-10-02T02:38:42.054Z,8.30
2018-10-02T02:41:23.166Z,8.30
2018-10-02T02:44:04.458Z,8.30
2018-10-02T02:46:45.809Z,8.20
2018-10-02T02:49:32.071Z,8.20
2018-10-02T02:52:13.711Z,8.30
2018-10-02T02:54:55.127Z,8.20
2018-10-02T02:57:36.181Z,8.20
2018-10-02T03:00:17.263Z,8.20
2018-10-02T03:02:58.740Z,8.20
2018-10-02T03:05:39.569Z,8.10
2018-10-02T03:08:20.727Z,8.00
2018-10-02T03:11:02.078Z,8.00
2018-10-02T03:13:43.596Z,8.00
2018-10-02T03:16:24.930Z,8.00
2018-10-02T03:19:06.332Z,7.90
2018-10-02T03:21:47.951Z,7.90
2018-10-02T03:24:29.167Z,7.90
2018-10-02T03:27:10.189Z,7.90
2018-10-02T03:29:51.151Z,7.80
2018-10-02T03:32:32.303Z,7.70
2018-10-02T03:35:14.081Z,7.60
2018-10-02T03:37:54.759Z,7.50
2018-10-02T03:40:36.471Z,7.50
2018-10-02T03:43:17.516Z,7.60
2018-10-02T03:45:58.394Z,7.50
2018-10-02T03:48:39.343Z,7.50
2018-10-02T03:51:20.199Z,7.50
2018-10-02T03:54:01.360Z,7.50
2018-10-02T03:56:42.981Z,7.50
2018-10-02T03:59:24.186Z,7.60
2018-10-02T04:02:05.454Z,7.50
2018-10-02T04:04:46.844Z,7.60
2018-10-02T04:07:27.786Z,7.60
2018-10-02T04:10:09.134Z,7.60
2018-10-02T04:12:50.641Z,7.50
2018-10-02T04:15:33.430Z,7.60
2018-10-02T04:18:14.227Z,7.60
2018-10-02T04:20:56.205Z,7.60
2018-10-02T04:23:36.958Z,7.60
2018-10-02T04:26:18.187Z,7.60
2018-10-02T04:28:59.591Z,7.60
2018-10-02T04:31:41.018Z,7.70
2018-10-02T04:34:21.919Z,7.80
2018-10-02T04:37:02.734Z,7.70
2018-10-02T04:39:43.485Z,7.70
2018-10-02T04:42:24.311Z,7.70
2018-10-02T04:45:06.214Z,7.70
2018-10-02T04:47:47.093Z,7.60
2018-10-02T04:50:28.164Z,7.60
2018-10-02T04:53:09.742Z,7.60
2018-10-02T04:55:50.942Z,7.60
2018-10-02T04:58:31.969Z,7.50
2018-10-02T05:01:12.843Z,7.50
2018-10-02T05:03:53.789Z,7.40
2018-10-02T05:06:34.789Z,7.40
2018-10-02T05:09:15.738Z,7.30
2018-10-02T05:11:56.718Z,7.40
2018-10-02T05:14:37.911Z,7.50
2018-10-02T05:17:19.589Z,7.60
2018-10-02T05:20:00.525Z,7.60
2018-10-02T05:22:41.731Z,7.70
2018-10-02T05:25:22.910Z,7.70
2018-10-02T05:28:03.727Z,7.70
2018-10-02T05:30:46.078Z,7.70
2018-10-02T05:33:27.255Z,7.70
2018-10-02T05:36:09.737Z,7.70
2018-10-02T05:38:50.616Z,7.70
2018-10-02T05:41:31.642Z,7.70
2018-10-02T05:44:12.688Z,7.70
2018-10-02T05:46:54.516Z,7.70
2018-10-02T05:49:35.553Z,7.70
2018-10-02T05:52:16.769Z,7.80
2018-10-02T05:54:58.078Z,7.70
2018-10-02T05:57:39.867Z,7.80
2018-10-02T06:00:21.388Z,7.80
2018-10-02T06:03:02.768Z,7.90
2018-10-02T06:05:45.236Z,8.00
2018-10-02T06:08:26.462Z,8.00
2018-10-02T06:11:07.844Z,8.10
2018-10-02T06:13:48.887Z,8.10
2018-10-02T06:16:29.792Z,8.30
2018-10-02T06:19:11.136Z,8.30
2018-10-02T06:21:52.309Z,8.30
2018-10-02T06:24:33.675Z,8.30
2018-10-02T06:27:15.324Z,8.40
2018-10-02T06:29:56.193Z,8.40
2018-10-02T06:32:37.636Z,8.40
2018-10-02T06:35:19.335Z,8.30
2018-10-02T06:38:00.367Z,8.40
2018-10-02T06:40:41.599Z,8.40
2018-10-02T06:43:23.323Z,8.50
2018-10-02T06:46:05.286Z,8.60
2018-10-02T06:48:46.310Z,8.60
2018-10-02T06:51:27.725Z,8.50
2018-10-02T06:54:09.367Z,8.60
2018-10-02T06:56:50.771Z,8.60
2018-10-02T06:59:32.123Z,8.70
2018-10-02T07:02:13.069Z,8.90
2018-10-02T07:04:54.139Z,8.80
2018-10-02T07:07:35.424Z,9.00
2018-10-02T07:10:17.005Z,8.90
2018-10-02T07:12:58.386Z,8.90
2018-10-02T07:15:39.460Z,8.90
2018-10-02T07:18:20.128Z,8.90
2018-10-02T07:21:01.049Z,9.00
2018-10-02T07:23:42.213Z,9.30
2018-10-02T07:26:23.316Z,9.50
2018-10-02T07:29:04.944Z,9.80
2018-10-02T07:31:47.253Z,11.30
2018-10-02T07:34:28.204Z,13.00
2018-10-02T07:37:09.325Z,12.90
2018-10-02T07:39:49.840Z,12.70
2018-10-02T07:42:30.559Z,14.30
2018-10-02T07:45:11.460Z,15.60
2018-10-02T07:47:52.368Z,16.80
2018-10-02T07:50:33.600Z,18.10
2018-10-02T07:53:14.671Z,18.90
2018-10-02T07:55:55.086Z,18.60
2018-10-02T07:58:35.989Z,17.30
2018-10-02T08:01:16.767Z,16.30
2018-10-02T08:03:57.350Z,15.10
2018-10-02T08:06:39.114Z,14.30
2018-10-02T08:09:19.973Z,13.40
2018-10-02T08:12:00.579Z,15.00
2018-10-02T08:14:41.387Z,15.20
2018-10-02T08:17:22.324Z,15.70
2018-10-02T08:20:03.424Z,16.30
2018-10-02T08:22:44.210Z,16.50
2018-10-02T08:25:24.902Z,17.40
2018-10-02T08:28:05.833Z,19.10
2018-10-02T08:30:47.808Z,19.40
2018-10-02T08:33:28.742Z,19.90
2018-10-02T08:36:10.368Z,20.70
2018-10-02T08:38:51.280Z,21.30
2018-10-02T08:41:32.202Z,20.20
2018-10-02T08:44:13.529Z,18.70
2018-10-02T08:46:54.336Z,19.50
2018-10-02T08:49:35.019Z,20.30
2018-10-02T08:52:15.713Z,20.30
2018-10-02T08:54:56.537Z,20.20
2018-10-02T08:57:37.464Z,20.60
2018-10-02T09:00:18.398Z,20.50
2018-10-02T09:02:58.909Z,20.30
2018-10-02T09:05:40.230Z,18.50
2018-10-02T09:08:21.217Z,17.00
2018-10-02T09:11:02.112Z,16.50
2018-10-02T09:13:42.965Z,16.40
2018-10-02T09:16:24.045Z,17.20
2018-10-02T09:19:05.395Z,18.40
2018-10-02T09:21:46.440Z,18.30
2018-10-02T09:24:27.597Z,18.20
2018-10-02T09:27:08.342Z,17.50
2018-10-02T09:29:54.683Z,17.90
2018-10-02T09:32:40.951Z,18.20
2018-10-02T09:35:27.905Z,19.90
2018-10-02T09:38:14.018Z,20.40
2018-10-02T09:41:00.023Z,18.60
2018-10-02T09:43:51.399Z,17.40
2018-10-02T09:46:32.152Z,16.20
2018-10-02T09:49:13.229Z,15.90
2018-10-02T09:51:54.497Z,15.50
2018-10-02T09:54:35.846Z,15.20
2018-10-02T09:57:17.176Z,15.40
2018-10-02T09:59:58.491Z,16.10
2018-10-02T10:02:39.679Z,16.50
2018-10-02T10:05:21.554Z,16.20
2018-10-02T10:08:02.171Z,18.40
2018-10-02T10:10:43.060Z,18.90
2018-10-02T10:13:23.778Z,19.30
2018-10-02T10:16:04.600Z,18.50
2018-10-02T10:18:45.130Z,18.00
2018-10-02T10:21:26.056Z,17.70
2018-10-02T10:24:07.114Z,17.40
2018-10-02T10:26:47.869Z,16.00
2018-10-02T10:29:28.430Z,15.60
2018-10-02T10:32:09.419Z,16.90
2018-10-02T10:34:50.367Z,19.00
2018-10-02T10:37:31.181Z,20.40
2018-10-02T10:40:12.392Z,20.30
2018-10-02T10:42:52.891Z,19.30
2018-10-02T10:45:34.024Z,18.20
2018-10-02T10:48:15.215Z,17.10
2018-10-02T10:50:56.119Z,16.60
2018-10-02T10:53:36.496Z,16.30
2018-10-02T10:56:17.129Z,15.60
2018-10-02T10:58:57.725Z,15.20
2018-10-02T11:01:38.408Z,15.30
2018-10-02T11:04:19.300Z,15.50
2018-10-02T11:07:00.925Z,15.10
2018-10-02T11:09:42.010Z,14.30
2018-10-02T11:12:23.015Z,15.20
2018-10-02T11:15:04.828Z,15.30
2018-10-02T11:17:46.473Z,14.90
2018-10-02T11:20:29.761Z,14.40
2018-10-02T11:23:10.879Z,14.00
2018-10-02T11:25:51.513Z,13.80
2018-10-02T11:28:32.727Z,13.70
2018-10-02T11:31:14.653Z,13.60
2018-10-02T11:33:56.557Z,13.80
2018-10-02T11:36:37.632Z,13.70
2018-10-02T11:39:18.599Z,13.70
2018-10-02T11:41:59.395Z,13.70
2018-10-02T11:44:40.041Z,13.90
2018-10-02T11:47:21.136Z,13.70
2018-10-02T11:50:02.169Z,13.60
2018-10-02T11:52:43.592Z,13.50
2018-10-02T11:55:24.700Z,13.70
2018-10-02T11:58:05.666Z,14.00
2018-10-02T12:00:46.677Z,13.90
2018-10-02T12:03:28.055Z,13.70
2018-10-02T12:06:08.964Z,13.80
2018-10-02T12:08:49.521Z,14.00
2018-10-02T12:11:30.514Z,13.90
2018-10-02T12:14:11.564Z,13.70
2018-10-02T12:16:53.210Z,13.50
2018-10-02T12:19:34.244Z,13.30
2018-10-02T12:22:15.283Z,13.10
2018-10-02T12:24:56.359Z,13.00
2018-10-02T12:27:37.124Z,12.80
2018-10-02T12:30:18.156Z,13.00
2018-10-02T12:32:59.210Z,12.80
2018-10-02T12:35:40.423Z,12.90
2018-10-02T12:38:21.196Z,12.80
2018-10-02T12:41:02.239Z,12.80
2018-10-02T12:43:43.737Z,12.90
2018-10-02T12:46:26.764Z,13.00
2018-10-02T12:49:08.124Z,12.70
2018-10-02T12:51:49.748Z,13.00
2018-10-02T12:54:31.058Z,13.10
2018-10-02T12:57:11.979Z,13.00
2018-10-02T12:59:54.812Z,12.80
2018-10-02T13:02:35.743Z,12.50
2018-10-02T13:05:17.751Z,12.00
2018-10-02T13:07:58.604Z,11.90
2018-10-02T13:10:39.837Z,11.90
2018-10-02T13:13:23.054Z,11.70
2018-10-02T13:16:06.162Z,11.40
2018-10-02T13:18:47.666Z,11.30
2018-10-02T13:21:29.015Z,11.30
2018-10-02T13:24:10.563Z,11.40
2018-10-02T13:26:52.664Z,11.50
2018-10-02T13:29:33.332Z,11.60
2018-10-02T13:32:15.096Z,11.60
2018-10-02T13:34:56.506Z,11.80
2018-10-02T13:37:38.119Z,12.10
2018-10-02T13:40:18.996Z,12.10
2018-10-02T13:43:00.308Z,12.00
2018-10-02T13:45:40.971Z,12.20
2018-10-02T13:48:21.707Z,12.40
2018-10-02T13:51:02.771Z,12.50
2018-10-02T13:53:44.858Z,12.20
2018-10-02T13:56:25.554Z,11.90
2018-10-02T13:59:06.556Z,11.70
2018-10-02T14:01:47.158Z,11.80
2018-10-02T14:04:28.081Z,11.70
2018-10-02T14:07:09.308Z,11.80
2018-10-02T14:09:49.775Z,11.90
2018-10-02T14:12:31.058Z,11.90
2018-10-02T14:15:12.175Z,11.90
2018-10-02T14:17:53.872Z,11.70
2018-10-02T14:20:35.154Z,11.60
2018-10-02T14:23:16.459Z,11.70
2018-10-02T14:25:57.259Z,11.90
2018-10-02T14:28:38.181Z,12.00
2018-10-02T14:31:18.913Z,12.20
2018-10-02T14:33:59.795Z,12.10
2018-10-02T14:36:40.554Z,12.00
2018-10-02T14:39:22.515Z,11.70
2018-10-02T14:42:03.671Z,11.70
2018-10-02T14:44:45.506Z,11.80
2018-10-02T14:47:27.407Z,11.50
2018-10-02T14:50:08.566Z,11.30
2018-10-02T14:52:49.887Z,11.00
2018-10-02T14:55:30.791Z,11.00
2018-10-02T14:58:11.550Z,11.00
2018-10-02T15:00:53.078Z,11.00
2018-10-02T15:03:34.449Z,11.00
2018-10-02T15:06:15.139Z,10.90
2018-10-02T15:08:56.856Z,10.70
2018-10-02T15:11:37.999Z,10.70
2018-10-02T15:14:18.984Z,10.70
2018-10-02T15:16:59.879Z,10.80
2018-10-02T15:19:41.281Z,10.80
2018-10-02T15:22:22.974Z,10.80
2018-10-02T15:25:03.997Z,10.70
2018-10-02T15:27:44.858Z,10.80
2018-10-02T15:30:25.633Z,10.80
2018-10-02T15:33:07.405Z,10.80
2018-10-02T15:35:48.538Z,10.90
2018-10-02T15:38:29.467Z,10.80
2018-10-02T15:41:10.994Z,10.80
2018-10-02T15:43:52.238Z,10.60
2018-10-02T15:46:33.209Z,10.50
2018-10-02T15:49:14.332Z,10.50
2018-10-02T15:51:55.289Z,10.40
2018-10-02T15:54:36.093Z,10.40
2018-10-02T15:57:17.292Z,10.40
2018-10-02T15:59:59.839Z,10.40
2018-10-02T16:02:40.756Z,10.40
2018-10-02T16:05:21.899Z,10.30
2018-10-02T16:08:03.966Z,10.30
2018-10-02T16:10:45.404Z,10.30
2018-10-02T16:13:28.199Z,10.30
2018-10-02T16:16:10.703Z,10.30
2018-10-02T16:18:51.543Z,10.30
2018-10-02T16:21:32.491Z,10.30
2018-10-02T16:24:13.978Z,10.30
2018-10-02T16:26:55.279Z,10.30
2018-10-02T16:29:36.362Z,10.30
2018-10-02T16:32:18.422Z,10.30
2018-10-02T16:34:59.855Z,10.40
2018-10-02T16:37:41.243Z,10.30
2018-10-02T16:40:23.080Z,10.40
2018-10-02T16:43:04.482Z,10.40
2018-10-02T16:45:45.706Z,10.40
2018-10-02T16:48:26.746Z,10.30
2018-10-02T16:51:08.501Z,10.30
2018-10-02T16:53:49.293Z,10.40
2018-10-02T16:56:31.327Z,10.40
2018-10-02T16:59:12.455Z,10.40
2018-10-02T17:01:53.501Z,10.40
2018-10-02T17:04:35.497Z,10.40
2018-10-02T17:07:17.026Z,10.50
2018-10-02T17:09:58.136Z,10.50
2018-10-02T17:12:39.064Z,10.50
2018-10-02T17:15:19.836Z,10.50
2018-10-02T17:18:00.874Z,10.40
2018-10-02T17:20:42.439Z,10.40
2018-10-02T17:23:23.915Z,10.50
2018-10-02T17:26:05.221Z,10.50
2018-10-02T17:28:46.356Z,10.50
2018-10-02T17:31:29.497Z,10.40
2018-10-02T17:34:10.778Z,10.30
2018-10-02T17:36:51.907Z,10.30
2018-10-02T17:39:33.284Z,10.30
2018-10-02T17:42:14.714Z,10.30
2018-10-02T17:44:56.056Z,10.20
2018-10-02T17:47:37.440Z,10.20
2018-10-02T17:50:19.268Z,10.20
2018-10-02T17:53:00.843Z,10.10
2018-10-02T17:55:42.103Z,10.10
2018-10-02T17:58:23.230Z,10.10
2018-10-02T18:01:05.251Z,10.00
2018-10-02T18:03:47.763Z,10.00
2018-10-02T18:06:28.813Z,10.00
2018-10-02T18:09:09.986Z,10.00
2018-10-02T18:11:51.442Z,10.00
2018-10-02T18:14:32.456Z,10.00
2018-10-02T18:17:20.719Z,9.90
2018-10-02T18:20:02.743Z,9.80
2018-10-02T18:22:44.885Z,9.80
2018-10-02T18:25:26.157Z,9.80
2018-10-02T18:28:07.885Z,9.70
2018-10-02T18:30:50.620Z,9.70
2018-10-02T18:33:32.470Z,9.80
2018-10-02T18:36:14.019Z,9.80
2018-10-02T18:38:55.299Z,9.80
2018-10-02T18:41:37.013Z,9.80
2018-10-02T18:44:18.160Z,9.80
2018-10-02T18:46:59.579Z,9.90
2018-10-02T18:49:40.564Z,9.90
2018-10-02T18:52:22.152Z,10.00
2018-10-02T18:55:03.799Z,10.00
2018-10-02T18:57:46.235Z,10.10
2018-10-02T19:00:28.083Z,10.10
2018-10-02T19:03:10.067Z,10.20
2018-10-02T19:05:52.116Z,10.20
2018-10-02T19:08:38.548Z,10.30
2018-10-02T19:12:23.612Z,10.30
2018-10-02T19:15:05.196Z,10.30
2018-10-02T19:17:45.900Z,10.30
2018-10-02T19:20:31.896Z,10.30
2018-10-02T19:23:14.108Z,10.40
2018-10-02T19:26:00.392Z,10.40
2018-10-02T19:28:41.755Z,10.40
2018-10-02T19:31:29.013Z,10.40
2018-10-02T19:34:09.991Z,10.40
2018-10-02T19:36:50.997Z,10.40
2018-10-02T19:39:33.432Z,10.40
2018-10-02T19:42:15.250Z,10.50
2018-10-02T19:44:56.400Z,10.50
2018-10-02T19:47:37.323Z,10.50
2018-10-02T19:50:18.179Z,10.50
2018-10-02T19:52:59.590Z,10.40
2018-10-02T19:55:41.228Z,10.50
2018-10-02T19:58:22.243Z,10.50
2018-10-02T20:01:04.048Z,10.50
2018-10-02T20:03:45.397Z,10.50
2018-10-02T20:06:26.478Z,10.60
2018-10-02T20:09:09.649Z,10.60
2018-10-02T20:11:50.757Z,10.60
2018-10-02T20:14:33.600Z,10.70
2018-10-02T20:17:15.608Z,10.80
2018-10-02T20:19:57.338Z,10.80
2018-10-02T20:22:38.307Z,10.80
2018-10-02T20:25:19.283Z,10.90
2018-10-02T20:28:00.392Z,10.90
2018-10-02T20:30:41.954Z,10.90
2018-10-02T20:33:23.591Z,10.90
2018-10-02T20:36:05.127Z,10.90
2018-10-02T20:38:46.251Z,10.90
2018-10-02T20:41:30.166Z,10.90
2018-10-02T20:44:11.790Z,10.90
2018-10-02T20:46:52.842Z,11.00
2018-10-02T20:49:34.259Z,11.00
2018-10-02T20:52:15.349Z,11.00
2018-10-02T20:54:56.624Z,11.00
2018-10-02T20:57:37.966Z,11.10
2018-10-02T21:00:19.496Z,11.10
2018-10-02T21:03:00.524Z,11.20
2018-10-02T21:05:41.506Z,11.20
2018-10-02T21:08:22.631Z,11.20
2018-10-02T21:11:03.425Z,11.20
2018-10-02T21:13:44.391Z,11.20
2018-10-02T21:16:26.431Z,11.20
2018-10-02T21:19:08.005Z,11.20
2018-10-02T21:21:49.634Z,11.10
2018-10-02T21:24:31.598Z,11.20
2018-10-02T21:27:12.973Z,11.20
2018-10-02T21:29:54.707Z,11.20
2018-10-02T21:32:35.995Z,11.20
2018-10-02T21:35:16.809Z,11.20
2018-10-02T21:37:58.549Z,11.20
2018-10-02T21:40:39.890Z,11.30
2018-10-02T21:43:21.224Z,11.30
2018-10-02T21:46:02.660Z,11.20
2018-10-02T21:48:43.749Z,11.20
2018-10-02T21:51:25.299Z,11.30
2018-10-02T21:54:06.089Z,11.30
2018-10-02T21:56:47.310Z,11.30
2018-10-02T21:59:28.945Z,11.30
2018-10-02T22:02:10.145Z,11.30
2018-10-02T22:04:51.164Z,11.30
2018-10-02T22:07:32.131Z,11.40
2018-10-02T22:10:13.306Z,11.40
2018-10-02T22:12:54.608Z,11.40
2018-10-02T22:15:35.883Z,11.40
2018-10-02T22:18:17.502Z,11.40
2018-10-02T22:20:59.263Z,11.50
2018-10-02T22:23:41.391Z,11.60
2018-10-02T22:26:22.362Z,11.50
2018-10-02T22:29:04.159Z,11.50
2018-10-02T22:31:44.727Z,11.50
2018-10-02T22:34:27.296Z,11.50
2018-10-02T22:37:09.073Z,11.50
2018-10-02T22:39:50.476Z,11.50
2018-10-02T22:42:31.283Z,11.50
2018-10-02T22:45:12.915Z,11.50
2018-10-02T22:47:53.647Z,11.60
2018-10-02T22:50:34.328Z,11.60
2018-10-02T22:53:15.036Z,11.60
2018-10-02T22:55:56.121Z,11.60
2018-10-02T22:58:36.902Z,11.50
2018-10-02T23:01:17.990Z,11.50
2018-10-02T23:03:58.870Z,11.50
2018-10-02T23:06:40.077Z,11.40
2018-10-02T23:09:21.498Z,11.40
2018-10-02T23:12:02.961Z,11.40
2018-10-02T23:14:44.208Z,11.40
2018-10-02T23:17:25.340Z,11.40
2018-10-02T23:20:06.822Z,11.40
2018-10-02T23:22:48.350Z,11.30
2018-10-02T23:25:29.700Z,11.30
2018-10-02T23:28:10.908Z,11.30
2018-10-02T23:30:52.031Z,11.30
2018-10-02T23:33:33.161Z,11.40
2018-10-02T23:36:14.017Z,11.40
2018-10-02T23:38:55.377Z,11.40
2018-10-02T23:41:36.746Z,11.40
2018-10-02T23:44:18.025Z,11.40
2018-10-02T23:46:59.956Z,11.30
2018-10-02T23:49:40.995Z,11.40
2018-10-02T23:52:21.701Z,11.30
2018-10-02T23:55:03.292Z,11.30
2018-10-02T23:57:45.291Z,11.30
